createdAt,value
2019-01-03T00:02:40.760Z,60.8
2019-01-03T00:19:28.092Z,60.8
2019-01-03T00:36:15.205Z,60.4
2019-01-03T00:53:02.370Z,60.4
2019-01-03T01:09:49.607Z,60.0
2019-01-03T01:26:36.663Z,60.0
2019-01-03T01:43:23.809Z,60.0
2019-01-03T02:00:10.924Z,59.6
2019-01-03T02:16:58.043Z,59.6
2019-01-03T02:33:45.033Z,59.2
2019-01-03T02:50:32.094Z,59.2
2019-01-03T03:07:19.127Z,58.4
2019-01-03T03:24:06.089Z,58.4
2019-01-03T03:40:53.154Z,58.4
2019-01-03T03:57:40.141Z,58.0
2019-01-03T04:14:27.145Z,58.0
2019-01-03T04:31:14.000Z,58.0
2019-01-03T04:48:00.978Z,58.0
2019-01-03T05:04:47.813Z,57.2
2019-01-03T05:21:34.583Z,57.2
2019-01-03T05:38:21.401Z,57.2
2019-01-03T05:55:08.259Z,57.2
2019-01-03T06:11:55.189Z,56.4
2019-01-03T06:28:42.063Z,56.4
2019-01-03T06:45:28.868Z,56.4
2019-01-03T07:02:15.516Z,56.4
2019-01-03T07:19:02.127Z,56.0
2019-01-03T07:35:48.756Z,56.0
2019-01-03T07:52:35.628Z,56.0
2019-01-03T08:09:22.022Z,55.2
2019-01-03T08:26:08.493Z,54.8
2019-01-03T08:42:55.109Z,55.2
2019-01-03T08:59:42.302Z,55.2
2019-01-03T09:16:29.582Z,55.2
2019-01-03T09:33:16.690Z,55.2
2019-01-03T09:50:03.828Z,55.2
2019-01-03T10:06:51.091Z,55.2
2019-01-03T10:23:38.184Z,54.8
2019-01-03T10:40:25.387Z,54.8
2019-01-03T10:57:12.535Z,54.8
2019-01-03T11:13:59.591Z,54.8
2019-01-03T11:30:46.736Z,54.8
2019-01-03T11:47:33.785Z,54.4
2019-01-03T12:04:20.811Z,54.4
2019-01-03T12:21:07.843Z,54.4
2019-01-03T12:37:55.012Z,54.4
2019-01-03T12:54:42.502Z,54.4
2019-01-03T13:11:30.458Z,54.4
2019-01-03T13:28:18.274Z,54.4
2019-01-03T13:45:06.383Z,54.4
2019-01-03T14:01:54.187Z,54.4
2019-01-03T14:18:42.197Z,54.4
2019-01-03T14:35:30.251Z,54.4
2019-01-03T14:52:17.729Z,54.4
2019-01-03T15:09:05.197Z,54.4
2019-01-03T15:25:52.385Z,54.4
2019-01-03T15:42:39.699Z,54.0
2019-01-03T15:59:27.022Z,54.0
2019-01-03T16:16:14.258Z,54.0
2019-01-03T16:33:01.610Z,54.4
2019-01-03T16:49:48.971Z,54.4
2019-01-03T17:06:36.345Z,54.4
2019-01-03T17:23:24.297Z,54.4
2019-01-03T17:40:11.139Z,54.0
2019-01-03T17:56:58.385Z,55.2
2019-01-03T18:13:45.684Z,56.0
2019-01-03T18:30:32.959Z,56.0
2019-01-03T18:47:20.315Z,56.4
2019-01-03T19:04:07.709Z,56.4
2019-01-03T19:20:55.158Z,56.4
2019-01-03T19:37:42.724Z,56.8
2019-01-03T19:54:30.203Z,56.8
2019-01-03T20:11:17.554Z,56.8
2019-01-03T20:28:05.145Z,56.8
2019-01-03T20:44:53.088Z,56.8
2019-01-03T21:01:40.006Z,56.8
2019-01-03T21:18:27.377Z,56.8
2019-01-03T21:35:14.743Z,56.8
2019-01-03T21:52:02.338Z,56.8
2019-01-03T22:08:49.915Z,56.4
2019-01-03T22:25:37.553Z,56.4
2019-01-03T22:42:25.091Z,56.4
2019-01-03T22:59:12.801Z,56.0
2019-01-03T23:16:00.333Z,56.0
2019-01-03T23:32:47.724Z,56.0
2019-01-03T23:49:35.159Z,56.0
